Time;durP1;ratioP1;P1;durP2;ratioP2;P2;SDS_P1;SDS_P2;PMS_P1;PMS_P2;Temp;Humidity;BMP_temperature;BMP_pressure;BME280_temperature;BME280_humidity;BME280_pressure;Samples;Min_cycle;Max_cycle;Signal;HPM_P1;HPM_P2
2023/07/17 00:02:42;;;;;;;4.50;1.67;;;;;;;16.92;44.08;99959.59;10427089;28;21320;-58
2023/07/17 00:07:44;;;;;;;3.28;1.70;;;;;;;16.67;44.41;99955.53;10426988;28;20489;-58
2023/07/17 00:12:46;;;;;;;2.80;1.60;;;;;;;16.54;44.90;99948.78;10423259;28;20318;-58
2023/07/17 00:17:48;;;;;;;3.95;1.60;;;;;;;16.40;45.22;99941.16;10425553;28;20076;-58
2023/07/17 00:22:50;;;;;;;4.20;1.45;;;;;;;16.16;45.68;99952.78;10425453;28;20052;-58
2023/07/17 00:27:52;;;;;;;3.00;1.58;;;;;;;16.09;45.88;99966.63;10425916;28;20497;-58
2023/07/17 00:32:54;;;;;;;6.22;2.22;;;;;;;16.06;46.25;99970.34;10425540;28;20127;-58
2023/07/17 00:37:56;;;;;;;4.30;1.52;;;;;;;16.06;46.43;99974.78;10424873;28;20682;-58
2023/07/17 00:43:00;;;;;;;4.13;1.52;;;;;;;15.95;46.77;99973.03;10424152;28;20052;-58
2023/07/17 00:48:03;;;;;;;3.70;1.52;;;;;;;15.84;46.91;99990.66;10439731;28;20055;-58
2023/07/17 00:53:07;;;;;;;2.75;1.60;;;;;;;15.78;47.31;99985.88;10423678;28;20056;-58
2023/07/17 00:58:09;;;;;;;3.85;1.70;;;;;;;15.72;47.25;99987.22;10408284;28;20064;-58
2023/07/17 01:03:13;;;;;;;4.82;1.73;;;;;;;15.63;47.63;99987.13;10438268;28;20045;-58
2023/07/17 01:08:16;;;;;;;3.75;1.52;;;;;;;15.59;47.93;99994.41;10424528;28;20041;-58
2023/07/17 01:13:18;;;;;;;3.22;1.77;;;;;;;15.55;48.08;99994.81;10422934;28;20131;-58
2023/07/17 01:18:20;;;;;;;3.47;1.75;;;;;;;15.46;48.34;99992.84;10423529;28;20053;-58
2023/07/17 01:23:22;;;;;;;4.53;1.60;;;;;;;15.32;48.68;99996.56;10406754;28;20056;-58
2023/07/17 01:28:24;;;;;;;4.65;1.90;;;;;;;15.18;48.97;99994.19;10422157;28;20053;-58
2023/07/17 01:33:26;;;;;;;4.10;1.92;;;;;;;15.18;48.96;99997.66;10423620;28;20120;-58
2023/07/17 01:38:32;;;;;;;5.82;2.53;;;;;;;15.14;48.95;100006.72;10424812;28;20052;-58
2023/07/17 01:43:34;;;;;;;3.53;1.50;;;;;;;15.01;49.18;100008.66;10423076;28;20313;-57
2023/07/17 01:48:36;;;;;;;3.35;1.60;;;;;;;14.89;49.60;100008.72;10422223;28;20037;-58
2023/07/17 01:53:40;;;;;;;4.82;1.55;;;;;;;14.92;49.83;100003.25;10423693;28;20059;-58
2023/07/17 01:58:43;;;;;;;4.55;1.77;;;;;;;14.85;49.61;100002.03;10419397;28;20127;-58
2023/07/17 02:03:45;;;;;;;5.00;1.58;;;;;;;14.79;49.69;100000.72;10395998;28;20140;-58
2023/07/17 02:08:47;;;;;;;3.50;1.85;;;;;;;14.79;49.86;99994.59;10428445;28;20151;-58
2023/07/17 02:13:49;;;;;;;2.97;1.60;;;;;;;14.64;50.01;99996.59;10430553;28;20045;-57
2023/07/17 02:18:51;;;;;;;3.78;1.75;;;;;;;14.46;50.55;99992.69;10408841;28;20538;-58
2023/07/17 02:23:53;;;;;;;3.58;1.85;;;;;;;14.41;50.51;100000.09;10428453;28;20211;-58
2023/07/17 02:28:55;;;;;;;4.47;2.20;;;;;;;14.01;50.80;100003.94;10427992;28;20041;-57
2023/07/17 02:33:57;;;;;;;5.13;1.77;;;;;;;13.73;51.47;100007.72;10432123;28;20144;-58
2023/07/17 02:39:00;;;;;;;5.07;1.70;;;;;;;13.87;51.66;100004.94;10452418;28;20047;-57
2023/07/17 02:44:03;;;;;;;4.05;2.05;;;;;;;13.86;51.57;100011.16;10438758;28;20055;-57
2023/07/17 02:49:11;;;;;;;3.88;1.88;;;;;;;13.96;51.77;100013.97;10436686;28;20044;-58
2023/07/17 02:54:13;;;;;;;3.03;1.77;;;;;;;14.05;51.75;100027.28;10436347;28;20413;-58
2023/07/17 02:59:15;;;;;;;5.72;2.05;;;;;;;14.03;51.66;100023.94;10434719;28;20521;-58
2023/07/17 03:04:17;;;;;;;6.93;2.25;;;;;;;14.00;52.15;100039.94;10432347;28;20140;-58
2023/07/17 03:09:19;;;;;;;3.50;2.03;;;;;;;14.00;51.92;100050.47;10430622;28;20052;-58
2023/07/17 03:14:21;;;;;;;5.28;1.88;;;;;;;13.64;52.45;100061.78;10427466;28;20140;-58
2023/07/17 03:19:23;;;;;;;4.28;2.00;;;;;;;13.64;52.81;100069.66;10426284;28;20532;-58
2023/07/17 03:24:25;;;;;;;4.30;2.08;;;;;;;13.43;53.03;100083.47;10430282;28;20133;-57
2023/07/17 03:29:27;;;;;;;4.32;2.15;;;;;;;13.36;53.26;100079.53;10428782;28;20085;-58
2023/07/17 03:34:29;;;;;;;4.35;2.08;;;;;;;13.52;53.14;100082.81;10428775;28;20049;-58
2023/07/17 03:39:31;;;;;;;4.00;1.70;;;;;;;13.49;53.17;100085.69;10426203;28;20404;-57
2023/07/17 03:44:33;;;;;;;3.50;1.70;;;;;;;13.50;53.16;100080.31;10427325;28;20512;-58
2023/07/17 03:49:35;;;;;;;5.32;1.85;;;;;;;13.69;53.20;100093.84;10428243;28;20087;-58
2023/07/17 03:54:38;;;;;;;4.22;1.75;;;;;;;13.76;53.14;100096.88;10442060;28;20041;-58
2023/07/17 04:00:10;;;;;;;2.95;1.83;;;;;;;13.25;55.00;100101.28;10426218;28;20555;-58
2023/07/17 04:05:15;;;;;;;5.38;1.85;;;;;;;13.55;53.70;100108.91;10427610;28;20088;-57
2023/07/17 04:10:17;;;;;;;3.42;1.90;;;;;;;13.77;53.11;100111.72;10424551;28;20083;-58
2023/07/17 04:15:20;;;;;;;2.97;1.60;;;;;;;13.91;53.16;100102.84;10424514;28;20041;-58
2023/07/17 04:20:22;;;;;;;4.95;2.00;;;;;;;14.12;53.01;100099.53;10427095;28;20056;-58
2023/07/17 04:25:24;;;;;;;4.63;2.00;;;;;;;14.94;52.33;100106.69;10426066;28;20055;-58
2023/07/17 04:30:27;;;;;;;5.90;2.22;;;;;;;15.76;50.50;100109.94;10423640;28;20049;-58
2023/07/17 04:35:35;;;;;;;3.67;1.67;;;;;;;16.99;48.58;100106.91;10423097;28;20053;-59
2023/07/17 04:40:37;;;;;;;5.45;1.77;;;;;;;18.87;45.50;100104.41;10423869;28;20033;-58
2023/07/17 04:45:42;;;;;;;2.45;1.42;;;;;;;20.89;42.60;100095.50;10424594;28;20162;-58
2023/07/17 04:50:49;;;;;;;3.20;1.57;;;;;;;22.34;40.86;100096.38;10425706;28;20087;-58
2023/07/17 04:55:51;;;;;;;2.83;1.98;;;;;;;22.05;40.90;100106.59;10411912;28;20485;-59
2023/07/17 05:01:00;;;;;;;2.70;1.52;;;;;;;20.00;41.93;100122.91;10424112;28;20048;-58
2023/07/17 05:06:04;;;;;;;3.22;1.85;;;;;;;20.85;41.61;100120.72;10394894;28;20057;-58
2023/07/17 05:11:07;;;;;;;3.30;1.55;;;;;;;24.21;37.36;100112.94;10443742;28;20074;-58
2023/07/17 05:16:15;;;;;;;4.65;2.05;;;;;;;25.25;35.14;100112.38;10425636;28;20462;-58
2023/07/17 05:21:18;;;;;;;3.63;1.83;;;;;;;25.68;34.37;100108.97;10403121;28;20051;-58
2023/07/17 05:26:21;;;;;;;3.38;1.80;;;;;;;24.96;34.93;100107.78;10425669;28;20509;-58
2023/07/17 05:31:24;;;;;;;4.60;1.73;;;;;;;23.06;36.79;100114.34;10424332;28;20052;-59
2023/07/17 05:36:26;;;;;;;3.03;1.58;;;;;;;21.93;38.01;100113.16;10422719;28;20092;-58
2023/07/17 05:41:28;;;;;;;3.55;1.40;;;;;;;20.29;39.81;100118.28;10423187;28;20043;-58
2023/07/17 05:46:31;;;;;;;4.40;2.00;;;;;;;19.70;41.15;100130.28;10423367;28;20568;-58
2023/07/17 05:51:33;;;;;;;3.00;1.67;;;;;;;19.71;41.39;100143.38;10422016;28;20082;-58
2023/07/17 05:56:35;;;;;;;3.38;1.50;;;;;;;20.16;41.03;100135.56;10422501;28;20060;-58
2023/07/17 06:01:37;;;;;;;3.88;1.80;;;;;;;20.46;40.85;100132.56;10411327;28;20045;-58
2023/07/17 06:06:41;;;;;;;3.63;1.90;;;;;;;20.45;41.02;100133.56;10439044;28;20115;-58
2023/07/17 06:11:44;;;;;;;3.85;1.80;;;;;;;20.48;40.82;100130.59;10429548;28;20175;-58
2023/07/17 06:16:46;;;;;;;6.43;1.80;;;;;;;20.55;40.77;100129.03;10430622;28;20135;-58
2023/07/17 06:21:48;;;;;;;3.78;1.65;;;;;;;20.34;41.25;100136.44;10430190;28;20076;-58
2023/07/17 06:26:50;;;;;;;3.80;1.92;;;;;;;20.40;41.15;100143.81;10430724;28;20672;-58
2023/07/17 06:31:53;;;;;;;2.78;1.45;;;;;;;20.61;40.92;100144.41;10433060;28;20056;-58
2023/07/17 06:36:56;;;;;;;3.05;1.52;;;;;;;20.73;40.59;100151.16;10429489;28;20557;-58
2023/07/17 06:41:58;;;;;;;4.40;1.90;;;;;;;20.85;40.47;100151.78;10432063;28;20051;-58
2023/07/17 06:47:00;;;;;;;5.88;1.95;;;;;;;20.94;39.52;100151.72;10432473;28;20448;-58
2023/07/17 06:52:02;;;;;;;3.42;1.42;;;;;;;21.24;39.05;100155.78;10427913;28;20095;-58
2023/07/17 06:57:05;;;;;;;3.42;1.70;;;;;;;21.65;38.00;100154.28;10431167;28;20051;-58
2023/07/17 07:02:07;;;;;;;8.55;1.70;;;;;;;21.85;37.41;100159.25;10427440;28;20390;-58
2023/07/17 07:07:09;;;;;;;2.72;1.27;;;;;;;22.21;36.92;100159.13;10430619;28;20328;-58
2023/07/17 07:12:11;;;;;;;3.00;1.55;;;;;;;22.58;36.85;100159.56;10429293;28;20076;-58
2023/07/17 07:17:13;;;;;;;4.10;1.48;;;;;;;22.65;36.56;100161.44;10428870;28;20096;-58
2023/07/17 07:22:16;;;;;;;3.28;1.40;;;;;;;22.82;36.22;100166.81;10429534;28;20049;-57
2023/07/17 07:27:18;;;;;;;2.78;1.50;;;;;;;23.02;35.60;100165.50;10427956;28;20123;-58
2023/07/17 07:32:20;;;;;;;3.05;1.48;;;;;;;23.35;35.30;100172.53;10427120;28;20285;-58
2023/07/17 07:37:22;;;;;;;2.70;1.40;;;;;;;24.04;34.10;100159.38;10426419;28;20103;-58
2023/07/17 07:42:24;;;;;;;2.78;1.45;;;;;;;24.72;34.01;100151.59;10427947;28;20418;-58
2023/07/17 07:47:26;;;;;;;2.25;1.40;;;;;;;25.72;32.87;100148.59;10416893;28;20595;-58
2023/07/17 07:52:28;;;;;;;2.65;1.30;;;;;;;27.30;30.74;100146.81;10421481;28;20262;-58
2023/07/17 07:57:30;;;;;;;2.47;1.27;;;;;;;28.76;29.67;100145.59;10401185;28;20052;-59
2023/07/17 08:02:32;;;;;;;3.25;1.10;;;;;;;28.83;28.42;100130.28;10425119;28;20041;-59
2023/07/17 08:07:35;;;;;;;1.30;0.90;;;;;;;29.19;27.43;100139.88;10410574;28;20044;-59
2023/07/17 08:12:37;;;;;;;2.65;1.00;;;;;;;29.34;26.85;100148.56;10425383;28;20041;-59
2023/07/17 08:17:39;;;;;;;1.83;1.10;;;;;;;29.43;26.36;100144.69;10422034;28;20356;-59
2023/07/17 08:22:41;;;;;;;2.60;1.20;;;;;;;29.87;25.54;100151.03;10422337;28;20494;-59
2023/07/17 08:27:43;;;;;;;5.75;1.20;;;;;;;29.67;25.28;100144.88;10420168;28;20047;-59
2023/07/17 08:32:45;;;;;;;1.85;0.75;;;;;;;30.37;24.77;100146.78;10411538;28;20103;-59
2023/07/17 08:37:47;;;;;;;2.38;1.23;;;;;;;30.09;24.88;100142.72;10421563;28;20084;-59
2023/07/17 08:42:51;;;;;;;3.10;1.00;;;;;;;30.42;24.55;100143.41;10421972;28;20041;-59
2023/07/17 08:47:54;;;;;;;1.00;0.80;;;;;;;30.46;23.60;100145.50;10436394;28;20131;-59
2023/07/17 08:52:56;;;;;;;1.40;0.93;;;;;;;28.92;25.70;100144.41;10421205;28;20445;-59
2023/07/17 08:58:01;;;;;;;3.30;1.30;;;;;;;27.67;26.42;100152.91;10422609;28;20048;-59
2023/07/17 09:03:03;;;;;;;3.20;1.10;;;;;;;28.66;25.67;100145.16;10422388;28;20060;-59
2023/07/17 09:08:05;;;;;;;2.10;0.93;;;;;;;29.39;25.01;100140.75;10420697;28;20084;-59
2023/07/17 09:13:08;;;;;;;2.35;1.05;;;;;;;28.81;25.36;100140.44;10421797;28;20041;-59
2023/07/17 09:18:10;;;;;;;2.97;1.35;;;;;;;27.91;26.06;100136.34;10404907;28;20400;-59
2023/07/17 09:23:12;;;;;;;1.67;1.10;;;;;;;29.06;24.80;100133.47;10418080;28;20051;-59
2023/07/17 09:28:15;;;;;;;1.60;0.93;;;;;;;29.41;24.67;100128.72;10419726;28;20072;-59
2023/07/17 09:33:24;;;;;;;3.75;0.98;;;;;;;29.14;23.92;100129.72;10416585;28;20106;-59
2023/07/17 09:38:26;;;;;;;2.20;0.93;;;;;;;27.63;25.61;100136.31;10421448;28;20107;-59
2023/07/17 09:43:32;;;;;;;3.50;1.00;;;;;;;28.05;25.44;100138.91;10418816;28;20057;-59
2023/07/17 09:48:35;;;;;;;1.77;1.00;;;;;;;28.52;25.35;100138.09;10421657;28;20560;-60
2023/07/17 09:53:38;;;;;;;1.80;0.95;;;;;;;27.13;25.48;100142.72;10415002;28;20171;-59
2023/07/17 09:58:53;;;;;;;1.90;1.10;;;;;;;26.84;26.43;100150.91;10421243;28;20044;-59
2023/07/17 10:03:57;;;;;;;3.08;1.23;;;;;;;28.01;25.52;100152.94;10417727;28;20053;-59
2023/07/17 10:09:02;;;;;;;2.53;0.80;;;;;;;28.23;24.82;100132.97;10421284;28;20048;-61
2023/07/17 10:14:04;;;;;;;2.53;1.08;;;;;;;27.18;25.75;100142.16;10419241;28;20156;-60
2023/07/17 10:19:08;;;;;;;2.65;1.40;;;;;;;26.76;26.31;100148.34;10419951;28;20048;-60
2023/07/17 10:24:10;;;;;;;3.08;1.08;;;;;;;27.25;25.87;100151.13;10415402;28;20049;-60
2023/07/17 10:29:12;;;;;;;3.97;1.13;;;;;;;27.19;26.45;100150.03;10420085;28;20378;-60
2023/07/17 10:34:14;;;;;;;3.13;1.08;;;;;;;26.62;27.36;100159.97;10412837;28;20419;-60
2023/07/17 10:39:19;;;;;;;2.55;1.10;;;;;;;26.13;27.76;100157.06;10420150;28;20523;-60
2023/07/17 10:44:22;;;;;;;2.40;1.08;;;;;;;26.25;27.79;100157.41;10418219;28;20154;-60
2023/07/17 10:49:24;;;;;;;5.63;1.45;;;;;;;26.18;28.18;100160.00;10416867;28;20130;-60
2023/07/17 10:54:27;;;;;;;2.15;1.00;;;;;;;26.02;28.15;100162.88;10419768;28;20053;-60
2023/07/17 10:59:30;;;;;;;2.90;1.20;;;;;;;26.13;27.97;100158.91;10423295;28;20069;-60
2023/07/17 11:04:35;;;;;;;3.50;1.30;;;;;;;26.44;27.56;100143.41;10421943;28;20075;-60
2023/07/17 11:09:37;;;;;;;3.20;1.00;;;;;;;26.21;27.97;100143.53;10425942;28;20453;-60
2023/07/17 11:14:41;;;;;;;4.75;1.02;;;;;;;26.10;28.08;100141.31;10422838;28;20162;-60
2023/07/17 11:19:44;;;;;;;1.83;0.95;;;;;;;26.52;27.78;100137.94;10424417;28;20507;-60
2023/07/17 11:24:46;;;;;;;1.90;0.98;;;;;;;27.41;25.54;100127.50;10419333;28;20048;-60
2023/07/17 11:29:50;;;;;;;1.08;0.88;;;;;;;27.41;25.49;100137.41;10426930;28;20102;-60
2023/07/17 11:34:56;;;;;;;1.85;1.00;;;;;;;27.03;25.11;100136.84;10438342;28;20041;-60
2023/07/17 11:40:03;;;;;;;2.60;1.00;;;;;;;27.30;24.65;100125.34;10425859;28;20485;-60
2023/07/17 11:45:05;;;;;;;2.10;1.10;;;;;;;27.54;24.62;100125.94;10422689;28;20452;-60
2023/07/17 11:50:07;;;;;;;3.10;0.93;;;;;;;27.37;24.77;100123.53;10420063;28;20146;-60
2023/07/17 11:55:09;;;;;;;1.83;0.80;;;;;;;27.60;24.74;100125.97;10422962;28;20139;-60
2023/07/17 12:00:12;;;;;;;1.02;0.80;;;;;;;27.55;24.66;100123.03;10425377;28;20135;-60
2023/07/17 12:05:14;;;;;;;2.60;0.85;;;;;;;27.91;24.07;100112.16;10421654;28;20036;-60
2023/07/17 12:10:16;;;;;;;3.42;1.35;;;;;;;27.44;24.42;100110.16;10421983;28;20041;-60
2023/07/17 12:15:18;;;;;;;1.77;0.90;;;;;;;27.52;24.64;100106.50;10424063;28;20041;-60
2023/07/17 12:20:21;;;;;;;1.45;0.73;;;;;;;27.52;24.24;100102.75;10423757;28;20048;-60
2023/07/17 12:25:23;;;;;;;2.58;1.02;;;;;;;27.63;23.96;100092.53;10423055;28;20439;-60
2023/07/17 12:30:26;;;;;;;1.92;1.00;;;;;;;28.20;23.95;100096.53;10418682;28;20643;-60
2023/07/17 12:35:31;;;;;;;3.38;1.00;;;;;;;28.68;23.56;100093.81;10404748;28;20045;-60
2023/07/17 12:40:33;;;;;;;1.60;0.85;;;;;;;28.20;23.76;100095.72;10419713;28;20049;-60
2023/07/17 12:45:36;;;;;;;1.15;0.80;;;;;;;28.34;23.79;100075.91;10419030;28;20049;-60
2023/07/17 12:50:38;;;;;;;1.88;0.77;;;;;;;28.26;23.77;100081.44;10404079;28;20187;-60
2023/07/17 12:55:40;;;;;;;2.55;1.05;;;;;;;28.40;23.89;100077.81;10416810;28;20405;-61
2023/07/17 13:00:43;;;;;;;4.55;1.30;;;;;;;28.18;23.61;100078.94;10421236;28;20045;-60
2023/07/17 13:05:45;;;;;;;2.35;0.95;;;;;;;28.26;23.81;100076.06;10415221;28;20063;-60
2023/07/17 13:10:47;;;;;;;1.10;0.75;;;;;;;28.62;23.17;100073.94;10418134;28;20041;-60
2023/07/17 13:15:49;;;;;;;1.85;0.90;;;;;;;28.59;22.46;100068.13;10417131;28;20055;-60
2023/07/17 13:20:51;;;;;;;1.17;0.75;;;;;;;28.33;22.84;100070.75;10406477;28;20131;-60
2023/07/17 13:25:53;;;;;;;3.30;0.55;;;;;;;28.07;23.00;100074.16;10415553;28;20063;-60
2023/07/17 13:30:55;;;;;;;1.85;0.80;;;;;;;27.68;23.63;100074.78;10421817;28;20088;-60
2023/07/17 13:36:11;;;;;;;1.13;0.80;;;;;;;27.76;23.70;100082.69;10413238;28;20210;-62
2023/07/17 13:41:38;;;;;;;1.48;0.90;;;;;;;27.61;23.32;100078.44;10420634;28;20040;-60
2023/07/17 13:46:42;;;;;;;1.60;0.80;;;;;;;27.52;24.05;100083.16;10414867;28;20056;-60
2023/07/17 13:51:48;;;;;;;1.88;0.95;;;;;;;27.28;24.20;100087.09;10418303;28;20269;-60
2023/07/17 13:56:50;;;;;;;0.65;0.57;;;;;;;27.08;23.94;100091.47;10414873;28;20130;-60
2023/07/17 14:01:55;;;;;;;1.08;0.80;;;;;;;27.28;24.37;100084.41;10421580;28;20055;-60
2023/07/17 14:06:57;;;;;;;1.13;0.77;;;;;;;27.61;24.17;100078.44;10413449;28;20047;-60
2023/07/17 14:11:59;;;;;;;2.17;0.60;;;;;;;27.60;24.22;100091.06;10418650;28;20045;-60
2023/07/17 14:17:01;;;;;;;2.08;1.00;;;;;;;27.68;23.91;100088.22;10415564;28;20041;-60
2023/07/17 14:22:03;;;;;;;2.38;0.80;;;;;;;28.11;23.77;100070.03;10417464;28;20115;-61
2023/07/17 14:27:06;;;;;;;2.95;1.02;;;;;;;27.95;23.57;100065.81;10411999;28;20044;-60
2023/07/17 14:32:08;;;;;;;3.40;1.00;;;;;;;28.05;23.48;100062.78;10426203;28;20053;-60
2023/07/17 14:37:10;;;;;;;1.83;1.02;;;;;;;27.73;23.73;100066.97;10424154;28;20049;-60
2023/07/17 14:42:12;;;;;;;2.58;1.10;;;;;;;27.58;24.09;100065.41;10428085;28;20040;-60
2023/07/17 14:47:15;;;;;;;1.30;0.77;;;;;;;27.38;24.31;100068.78;10423022;28;20421;-60
2023/07/17 14:52:17;;;;;;;2.45;1.13;;;;;;;27.50;24.28;100066.41;10425762;28;20037;-61
2023/07/17 14:57:19;;;;;;;2.20;1.00;;;;;;;27.45;24.14;100066.16;10421861;28;20394;-61
2023/07/17 15:02:21;;;;;;;2.13;0.98;;;;;;;27.63;23.76;100060.28;10427850;28;20123;-60
2023/07/17 15:07:23;;;;;;;1.08;0.70;;;;;;;27.77;23.86;100070.91;10420655;28;20098;-60
2023/07/17 15:12:27;;;;;;;2.72;1.10;;;;;;;26.84;23.72;100070.41;10422959;28;20052;-60
2023/07/17 15:17:29;;;;;;;0.70;0.63;;;;;;;26.68;24.48;100071.50;10419997;28;20614;-60
2023/07/17 15:22:31;;;;;;;1.90;0.82;;;;;;;26.85;24.44;100068.53;10421529;28;20037;-60
2023/07/17 15:27:33;;;;;;;0.95;0.63;;;;;;;26.82;24.36;100066.22;10422594;28;20045;-60
2023/07/17 15:32:35;;;;;;;1.00;0.60;;;;;;;26.91;24.71;100070.47;10422204;28;20041;-60
2023/07/17 15:37:38;;;;;;;1.40;0.93;;;;;;;26.85;24.21;100060.50;10417547;28;20041;-60
2023/07/17 15:42:41;;;;;;;3.40;0.88;;;;;;;27.66;23.82;100059.88;10422941;28;21064;-60
2023/07/17 15:47:44;;;;;;;2.70;0.90;;;;;;;27.37;23.85;100063.63;10423085;28;20517;-60
2023/07/17 15:52:46;;;;;;;1.92;1.00;;;;;;;26.92;24.32;100067.56;10423244;28;21859;-60
2023/07/17 15:57:48;;;;;;;3.40;0.85;;;;;;;26.85;24.48;100076.59;10399968;28;20049;-60
2023/07/17 16:02:51;;;;;;;1.88;0.68;;;;;;;26.64;24.29;100078.28;10424546;28;20114;-60
2023/07/17 16:07:53;;;;;;;1.58;0.80;;;;;;;26.30;24.49;100094.13;10421836;28;20090;-60
2023/07/17 16:12:55;;;;;;;2.75;1.10;;;;;;;26.28;24.42;100092.69;10424928;28;20052;-60
2023/07/17 16:17:57;;;;;;;4.65;1.00;;;;;;;26.35;24.35;100088.22;10422667;28;20085;-60
2023/07/17 16:23:00;;;;;;;3.22;1.00;;;;;;;26.67;24.13;100075.19;10423917;28;20049;-60
2023/07/17 16:28:03;;;;;;;1.23;0.60;;;;;;;26.33;24.67;100082.22;10423221;28;20056;-60
2023/07/17 16:33:05;;;;;;;1.00;0.60;;;;;;;25.80;24.44;100089.56;10422851;28;20055;-60
2023/07/17 16:38:07;;;;;;;1.60;0.82;;;;;;;25.50;24.72;100095.09;10423734;28;20048;-60
2023/07/17 16:43:09;;;;;;;1.23;0.70;;;;;;;25.58;24.65;100095.84;10426079;28;20052;-60
2023/07/17 16:48:14;;;;;;;1.33;0.90;;;;;;;25.58;24.66;100105.72;10420913;28;20685;-60
2023/07/17 16:53:16;;;;;;;1.05;0.50;;;;;;;25.70;24.72;100105.09;10423680;28;20065;-60
2023/07/17 16:58:18;;;;;;;2.15;0.77;;;;;;;25.55;24.65;100109.59;10423091;28;20041;-60
2023/07/17 17:03:20;;;;;;;0.63;0.57;;;;;;;25.33;24.57;100115.81;10424563;28;20114;-60
2023/07/17 17:08:22;;;;;;;1.42;0.57;;;;;;;25.32;24.86;100119.53;10419856;28;20052;-60
2023/07/17 17:13:24;;;;;;;0.82;0.63;;;;;;;25.17;25.37;100123.16;10418795;28;20064;-60
2023/07/17 17:18:26;;;;;;;1.33;0.70;;;;;;;25.21;25.22;100132.50;10413827;28;20063;-60
2023/07/17 17:23:28;;;;;;;1.85;0.60;;;;;;;25.58;25.11;100128.00;10415831;28;20124;-60
2023/07/17 17:28:32;;;;;;;0.32;0.32;;;;;;;25.57;25.03;100126.31;10414052;28;20505;-60
2023/07/17 17:33:34;;;;;;;1.98;0.85;;;;;;;25.50;25.40;100132.59;10411446;28;20033;-61
2023/07/17 17:38:36;;;;;;;0.40;0.35;;;;;;;25.01;25.84;100137.53;10411878;28;20421;-60
2023/07/17 17:43:38;;;;;;;1.55;0.80;;;;;;;25.10;25.86;100141.81;10414891;28;20123;-61
2023/07/17 17:48:40;;;;;;;1.08;0.55;;;;;;;25.33;25.70;100139.91;10414764;28;20057;-61
2023/07/17 17:53:42;;;;;;;1.13;0.73;;;;;;;24.94;26.21;100140.06;10416606;28;20114;-61
2023/07/17 17:58:44;;;;;;;1.02;0.68;;;;;;;24.71;26.51;100141.94;10414097;28;20040;-61
2023/07/17 18:03:46;;;;;;;1.52;0.70;;;;;;;24.43;26.88;100150.59;10417748;28;20060;-60
2023/07/17 18:08:48;;;;;;;1.33;0.63;;;;;;;24.18;27.06;100155.22;10410508;28;20128;-61
2023/07/17 18:13:55;;;;;;;2.10;0.73;;;;;;;24.06;27.18;100162.72;10418863;28;20315;-60
2023/07/17 18:18:57;;;;;;;1.33;0.90;;;;;;;24.34;27.06;100173.00;10357924;28;1161121;-60
2023/07/17 18:23:59;;;;;;;1.50;0.65;;;;;;;24.53;27.12;100181.41;10418553;28;20130;-60
2023/07/17 18:29:01;;;;;;;1.45;0.77;;;;;;;24.49;27.88;100196.16;10411763;28;20055;-60
2023/07/17 18:34:03;;;;;;;1.63;0.90;;;;;;;24.23;28.75;100207.13;10418405;28;20044;-60
2023/07/17 18:39:06;;;;;;;2.95;1.00;;;;;;;23.90;29.63;100221.53;10414005;28;20370;-61
2023/07/17 18:44:08;;;;;;;2.78;1.10;;;;;;;23.63;30.47;100221.94;10418505;28;20927;-61
2023/07/17 18:49:10;;;;;;;2.33;1.30;;;;;;;23.31;31.20;100241.41;10399770;28;20315;-60
2023/07/17 18:54:12;;;;;;;2.65;1.13;;;;;;;23.04;31.64;100249.72;10415746;28;20052;-60
2023/07/17 18:59:19;;;;;;;2.40;1.17;;;;;;;22.96;32.47;100251.53;10413292;28;20049;-60
2023/07/17 19:04:22;;;;;;;2.10;1.10;;;;;;;22.82;32.59;100260.16;10419068;28;20369;-60
2023/07/17 19:09:25;;;;;;;2.42;1.13;;;;;;;22.45;33.28;100279.13;10413146;28;20048;-60
2023/07/17 19:14:30;;;;;;;2.58;1.10;;;;;;;22.14;33.76;100277.94;10417465;28;20546;-60
2023/07/17 19:19:32;;;;;;;2.58;1.30;;;;;;;21.96;34.01;100293.97;10419754;28;20428;-60
2023/07/17 19:24:34;;;;;;;3.90;1.38;;;;;;;21.72;34.42;100299.91;10425679;28;20040;-60
2023/07/17 19:29:36;;;;;;;3.55;1.45;;;;;;;21.55;34.90;100310.59;10422932;28;20077;-59
2023/07/17 19:34:38;;;;;;;1.88;0.98;;;;;;;21.40;35.52;100325.41;10423355;28;20699;-58
2023/07/17 19:39:41;;;;;;;4.53;1.63;;;;;;;21.03;36.46;100333.44;10422235;28;20212;-59
2023/07/17 19:44:43;;;;;;;3.58;1.00;;;;;;;20.70;37.02;100339.34;10423599;28;20115;-58
2023/07/17 19:49:48;;;;;;;1.98;1.08;;;;;;;20.51;37.87;100371.28;10422812;28;20049;-59
2023/07/17 19:54:51;;;;;;;1.95;1.02;;;;;;;20.48;39.29;100385.69;10427672;28;20048;-59
2023/07/17 19:59:53;;;;;;;2.63;1.20;;;;;;;20.42;38.52;100388.09;10409839;28;20072;-58
2023/07/17 20:04:58;;;;;;;2.03;0.82;;;;;;;20.07;38.65;100394.00;10425862;28;20071;-59
2023/07/17 20:10:00;;;;;;;3.15;1.00;;;;;;;19.88;38.84;100404.63;10425770;28;20292;-58
2023/07/17 20:15:06;;;;;;;1.35;0.90;;;;;;;19.81;39.79;100424.69;10407230;28;20051;-59
2023/07/17 20:20:10;;;;;;;1.85;1.10;;;;;;;19.69;39.33;100425.78;10424713;28;20055;-58
2023/07/17 20:25:12;;;;;;;8.80;1.20;;;;;;;19.50;39.57;100425.78;10424128;28;20074;-58
2023/07/17 20:30:16;;;;;;;1.70;0.90;;;;;;;19.35;39.68;100423.50;10422035;28;20120;-59
2023/07/17 20:35:18;;;;;;;1.17;0.90;;;;;;;19.20;40.15;100424.84;10424182;28;20199;-58
2023/07/17 20:40:32;;;;;;;2.22;1.30;;;;;;;18.98;40.16;100427.66;10423640;28;20037;-59
2023/07/17 20:45:47;;;;;;;1.75;1.10;;;;;;;18.80;40.69;100433.72;10424066;28;20530;-59
2023/07/17 20:51:01;;;;;;;3.70;1.58;;;;;;;18.74;42.36;100436.88;10423731;28;20056;-58
2023/07/17 20:56:04;;;;;;;1.88;1.10;;;;;;;18.71;41.14;100451.22;10422516;28;20037;-59
2023/07/17 21:01:07;;;;;;;2.95;0.98;;;;;;;18.71;41.40;100453.88;10422403;28;20048;-59
2023/07/17 21:06:09;;;;;;;2.03;1.00;;;;;;;18.56;41.58;100457.84;10421422;28;20084;-58
2023/07/17 21:11:11;;;;;;;1.65;0.93;;;;;;;18.68;42.12;100459.47;10419143;28;21284;-58
2023/07/17 21:16:13;;;;;;;1.92;0.90;;;;;;;18.55;41.87;100464.09;10389789;28;20497;-58
2023/07/17 21:21:16;;;;;;;1.95;0.95;;;;;;;18.33;42.61;100469.53;10421745;28;20319;-58
2023/07/17 21:26:18;;;;;;;2.03;1.00;;;;;;;18.28;42.45;100471.72;10421167;28;20485;-59
2023/07/17 21:31:20;;;;;;;1.73;0.90;;;;;;;18.26;42.71;100463.88;10422196;28;20049;-58
2023/07/17 21:36:23;;;;;;;1.02;0.82;;;;;;;18.06;42.70;100475.25;10422338;28;20045;-59
2023/07/17 21:41:27;;;;;;;3.15;1.30;;;;;;;17.94;43.39;100478.91;10420217;28;20546;-59
2023/07/17 21:46:29;;;;;;;2.22;0.88;;;;;;;18.06;43.22;100483.19;10420777;28;20052;-59
2023/07/17 21:51:31;;;;;;;2.05;0.90;;;;;;;18.08;43.34;100478.63;10421889;28;20049;-58
2023/07/17 21:56:33;;;;;;;2.30;1.00;;;;;;;17.80;43.72;100487.13;10420532;28;20334;-59
2023/07/17 22:01:35;;;;;;;2.80;1.15;;;;;;;17.70;44.26;100480.91;10422976;28;20103;-58
2023/07/17 22:06:37;;;;;;;2.40;0.95;;;;;;;17.70;44.56;100486.19;10436322;28;20732;-59
2023/07/17 22:11:39;;;;;;;1.65;0.88;;;;;;;17.63;44.49;100487.63;10422129;28;20055;-58
2023/07/17 22:16:42;;;;;;;1.83;0.98;;;;;;;17.45;45.09;100499.69;10421843;28;20096;-58
2023/07/17 22:21:44;;;;;;;2.47;0.95;;;;;;;17.22;45.42;100504.09;10421446;28;20276;-58
2023/07/17 22:26:46;;;;;;;1.83;1.20;;;;;;;17.17;45.29;100513.34;10421172;28;20211;-59
2023/07/17 22:31:48;;;;;;;1.65;0.85;;;;;;;17.16;45.62;100523.06;10419059;28;20053;-59
2023/07/17 22:36:50;;;;;;;1.80;0.90;;;;;;;17.04;45.83;100524.03;10418203;28;20453;-59
2023/07/17 22:41:52;;;;;;;1.17;0.90;;;;;;;16.92;46.00;100528.47;10417717;28;20057;-59
2023/07/17 22:46:55;;;;;;;1.88;1.00;;;;;;;16.81;46.43;100532.91;10421561;28;20045;-58
2023/07/17 22:52:00;;;;;;;2.92;0.98;;;;;;;16.82;46.82;100537.19;10397084;28;20045;-59
2023/07/17 22:57:04;;;;;;;2.67;0.95;;;;;;;16.78;46.71;100539.25;10429968;28;20140;-59
2023/07/17 23:02:07;;;;;;;2.10;1.13;;;;;;;16.60;46.86;100539.78;10427238;28;20421;-59
2023/07/17 23:07:09;;;;;;;2.15;1.10;;;;;;;16.56;47.23;100543.63;10429820;28;20049;-58
2023/07/17 23:12:11;;;;;;;2.50;0.90;;;;;;;16.41;47.45;100545.56;10426773;28;20642;-58